sensor_id;sensor_type;location;lat;lon;timestamp;temperature;humidity
21891;DHT22;11110;52.386;16.940;2023-02-15T00:00:24;17.00;38.80
21891;DHT22;11110;52.386;16.940;2023-02-15T00:03:15;17.00;38.70
21891;DHT22;11110;52.386;16.940;2023-02-15T00:05:44;17.00;38.80
21891;DHT22;11110;52.386;16.940;2023-02-15T00:08:13;17.00;38.90
21891;DHT22;11110;52.386;16.940;2023-02-15T00:10:42;16.90;38.80
21891;DHT22;11110;52.386;16.940;2023-02-15T00:13:10;16.90;38.70
21891;DHT22;11110;52.386;16.940;2023-02-15T00:15:39;16.90;38.50
21891;DHT22;11110;52.386;16.940;2023-02-15T00:18:07;16.90;38.30
21891;DHT22;11110;52.386;16.940;2023-02-15T00:20:38;16.90;38.40
21891;DHT22;11110;52.386;16.940;2023-02-15T00:23:06;16.90;38.50
21891;DHT22;11110;52.386;16.940;2023-02-15T00:25:35;16.80;38.40
21891;DHT22;11110;52.386;16.940;2023-02-15T00:28:04;16.80;38.30
21891;DHT22;11110;52.386;16.940;2023-02-15T00:30:34;16.70;38.30
21891;DHT22;11110;52.386;16.940;2023-02-15T00:33:03;16.70;38.40
21891;DHT22;11110;52.386;16.940;2023-02-15T00:35:33;16.70;38.60
21891;DHT22;11110;52.386;16.940;2023-02-15T00:38:03;16.70;38.60
21891;DHT22;11110;52.386;16.940;2023-02-15T00:40:32;16.60;38.50
21891;DHT22;11110;52.386;16.940;2023-02-15T00:43:00;16.60;38.50
21891;DHT22;11110;52.386;16.940;2023-02-15T00:45:29;16.60;38.50
21891;DHT22;11110;52.386;16.940;2023-02-15T00:47:57;16.70;38.50
21891;DHT22;11110;52.386;16.940;2023-02-15T00:50:26;16.60;38.50
21891;DHT22;11110;52.386;16.940;2023-02-15T00:52:55;16.60;38.40
21891;DHT22;11110;52.386;16.940;2023-02-15T00:55:27;16.60;38.40
21891;DHT22;11110;52.386;16.940;2023-02-15T00:57:56;16.50;38.20
21891;DHT22;11110;52.386;16.940;2023-02-15T01:00:25;16.40;38.20
21891;DHT22;11110;52.386;16.940;2023-02-15T01:02:53;16.40;38.30
21891;DHT22;11110;52.386;16.940;2023-02-15T01:05:22;16.40;38.40
21891;DHT22;11110;52.386;16.940;2023-02-15T01:07:50;16.40;38.40
21891;DHT22;11110;52.386;16.940;2023-02-15T01:10:21;16.40;38.30
21891;DHT22;11110;52.386;16.940;2023-02-15T01:12:51;16.30;38.20
21891;DHT22;11110;52.386;16.940;2023-02-15T01:15:20;16.30;38.20
21891;DHT22;11110;52.386;16.940;2023-02-15T01:17:49;16.20;38.20
21891;DHT22;11110;52.386;16.940;2023-02-15T01:20:23;16.20;38.40
21891;DHT22;11110;52.386;16.940;2023-02-15T01:22:53;16.20;38.60
21891;DHT22;11110;52.386;16.940;2023-02-15T01:25:23;16.20;38.70
21891;DHT22;11110;52.386;16.940;2023-02-15T01:27:53;16.20;38.80
21891;DHT22;11110;52.386;16.940;2023-02-15T01:30:22;16.20;38.90
21891;DHT22;11110;52.386;16.940;2023-02-15T01:32:50;16.20;38.60
21891;DHT22;11110;52.386;16.940;2023-02-15T01:35:19;16.20;38.60
21891;DHT22;11110;52.386;16.940;2023-02-15T01:37:48;16.20;38.50
21891;DHT22;11110;52.386;16.940;2023-02-15T01:40:18;16.20;38.50
21891;DHT22;11110;52.386;16.940;2023-02-15T01:42:50;16.10;38.50
21891;DHT22;11110;52.386;16.940;2023-02-15T01:45:23;16.10;38.50
21891;DHT22;11110;52.386;16.940;2023-02-15T01:47:54;16.10;38.50
21891;DHT22;11110;52.386;16.940;2023-02-15T01:50:28;16.10;38.60
21891;DHT22;11110;52.386;16.940;2023-02-15T01:53:03;16.10;38.50
21891;DHT22;11110;52.386;16.940;2023-02-15T01:55:38;16.00;38.50
21891;DHT22;11110;52.386;16.940;2023-02-15T01:58:08;16.00;38.40
21891;DHT22;11110;52.386;16.940;2023-02-15T02:00:39;16.00;38.50
21891;DHT22;11110;52.386;16.940;2023-02-15T02:03:08;15.90;38.80
21891;DHT22;11110;52.386;16.940;2023-02-15T02:05:38;16.00;38.70
21891;DHT22;11110;52.386;16.940;2023-02-15T02:08:08;16.00;38.50
21891;DHT22;11110;52.386;16.940;2023-02-15T02:10:37;15.90;38.40
21891;DHT22;11110;52.386;16.940;2023-02-15T02:13:06;15.90;38.40
21891;DHT22;11110;52.386;16.940;2023-02-15T02:15:43;15.90;38.50
21891;DHT22;11110;52.386;16.940;2023-02-15T02:18:28;15.90;38.50
21891;DHT22;11110;52.386;16.940;2023-02-15T02:21:19;15.90;38.40
21891;DHT22;11110;52.386;16.940;2023-02-15T02:24:23;15.80;39.00
21891;DHT22;11110;52.386;16.940;2023-02-15T02:27:24;15.80;38.40
21891;DHT22;11110;52.386;16.940;2023-02-15T02:36:17;15.80;38.30
21891;DHT22;11110;52.386;16.940;2023-02-15T02:41:50;15.80;38.60
21891;DHT22;11110;52.386;16.940;2023-02-15T02:44:25;15.70;38.60
21891;DHT22;11110;52.386;16.940;2023-02-15T02:46:58;15.70;38.60
21891;DHT22;11110;52.386;16.940;2023-02-15T02:49:33;15.70;38.70
21891;DHT22;11110;52.386;16.940;2023-02-15T02:52:07;15.70;38.80
21891;DHT22;11110;52.386;16.940;2023-02-15T02:54:36;15.70;38.80
21891;DHT22;11110;52.386;16.940;2023-02-15T02:57:07;15.70;38.80
21891;DHT22;11110;52.386;16.940;2023-02-15T02:59:41;15.70;38.80
21891;DHT22;11110;52.386;16.940;2023-02-15T03:02:15;15.70;38.80
21891;DHT22;11110;52.386;16.940;2023-02-15T03:04:47;15.70;38.70
21891;DHT22;11110;52.386;16.940;2023-02-15T03:07:29;15.70;38.50
21891;DHT22;11110;52.386;16.940;2023-02-15T03:10:02;15.70;38.40
21891;DHT22;11110;52.386;16.940;2023-02-15T03:12:33;15.60;38.40
21891;DHT22;11110;52.386;16.940;2023-02-15T03:15:05;15.60;38.30
21891;DHT22;11110;52.386;16.940;2023-02-15T03:17:40;15.60;38.30
21891;DHT22;11110;52.386;16.940;2023-02-15T03:20:14;15.60;38.30
21891;DHT22;11110;52.386;16.940;2023-02-15T03:22:49;15.60;38.50
21891;DHT22;11110;52.386;16.940;2023-02-15T03:25:21;15.60;39.30
21891;DHT22;11110;52.386;16.940;2023-02-15T03:27:53;15.50;38.40
21891;DHT22;11110;52.386;16.940;2023-02-15T03:30:24;15.50;38.60
21891;DHT22;11110;52.386;16.940;2023-02-15T03:32:56;15.50;38.70
21891;DHT22;11110;52.386;16.940;2023-02-15T03:35:32;15.50;38.60
21891;DHT22;11110;52.386;16.940;2023-02-15T03:38:07;15.50;38.30
21891;DHT22;11110;52.386;16.940;2023-02-15T03:40:38;15.40;38.20
21891;DHT22;11110;52.386;16.940;2023-02-15T03:43:30;15.40;38.20
21891;DHT22;11110;52.386;16.940;2023-02-15T03:46:05;15.40;38.20
21891;DHT22;11110;52.386;16.940;2023-02-15T03:48:39;15.40;38.20
21891;DHT22;11110;52.386;16.940;2023-02-15T03:51:12;15.30;38.30
21891;DHT22;11110;52.386;16.940;2023-02-15T03:54:03;15.40;38.30
21891;DHT22;11110;52.386;16.940;2023-02-15T03:56:34;15.30;38.30
21891;DHT22;11110;52.386;16.940;2023-02-15T03:59:04;15.30;38.40
21891;DHT22;11110;52.386;16.940;2023-02-15T04:01:58;15.30;38.50
21891;DHT22;11110;52.386;16.940;2023-02-15T04:04:33;15.20;38.60
21891;DHT22;11110;52.386;16.940;2023-02-15T04:07:05;15.20;38.60
21891;DHT22;11110;52.386;16.940;2023-02-15T04:09:35;15.20;38.50
21891;DHT22;11110;52.386;16.940;2023-02-15T04:12:21;15.20;38.70
21891;DHT22;11110;52.386;16.940;2023-02-15T04:14:50;15.20;38.80
21891;DHT22;11110;52.386;16.940;2023-02-15T04:17:36;15.20;39.00
21891;DHT22;11110;52.386;16.940;2023-02-15T04:20:07;15.20;39.00
21891;DHT22;11110;52.386;16.940;2023-02-15T04:22:53;15.20;39.00
21891;DHT22;11110;52.386;16.940;2023-02-15T04:25:40;15.20;38.70
21891;DHT22;11110;52.386;16.940;2023-02-15T04:28:09;15.20;38.70
21891;DHT22;11110;52.386;16.940;2023-02-15T04:30:38;15.20;38.70
21891;DHT22;11110;52.386;16.940;2023-02-15T04:33:07;15.20;38.80
21891;DHT22;11110;52.386;16.940;2023-02-15T04:35:35;15.20;39.00
21891;DHT22;11110;52.386;16.940;2023-02-15T04:38:04;15.20;39.20
21891;DHT22;11110;52.386;16.940;2023-02-15T04:40:33;15.20;39.20
21891;DHT22;11110;52.386;16.940;2023-02-15T04:43:03;15.20;38.80
21891;DHT22;11110;52.386;16.940;2023-02-15T04:45:31;15.20;38.80
21891;DHT22;11110;52.386;16.940;2023-02-15T04:48:00;15.10;38.80
21891;DHT22;11110;52.386;16.940;2023-02-15T04:50:29;15.10;39.00
21891;DHT22;11110;52.386;16.940;2023-02-15T04:52:57;15.10;39.00
21891;DHT22;11110;52.386;16.940;2023-02-15T04:55:26;15.10;38.90
21891;DHT22;11110;52.386;16.940;2023-02-15T04:57:55;15.10;38.90
21891;DHT22;11110;52.386;16.940;2023-02-15T05:00:25;15.10;39.20
21891;DHT22;11110;52.386;16.940;2023-02-15T05:02:56;15.10;39.30
21891;DHT22;11110;52.386;16.940;2023-02-15T05:05:25;15.10;39.50
21891;DHT22;11110;52.386;16.940;2023-02-15T05:07:54;15.10;39.50
21891;DHT22;11110;52.386;16.940;2023-02-15T05:10:22;15.10;39.50
21891;DHT22;11110;52.386;16.940;2023-02-15T05:12:51;15.10;39.20
21891;DHT22;11110;52.386;16.940;2023-02-15T05:15:20;15.00;39.10
21891;DHT22;11110;52.386;16.940;2023-02-15T05:17:51;15.00;39.20
21891;DHT22;11110;52.386;16.940;2023-02-15T05:20:19;15.10;39.20
21891;DHT22;11110;52.386;16.940;2023-02-15T05:22:48;15.00;39.00
21891;DHT22;11110;52.386;16.940;2023-02-15T05:25:17;15.00;38.80
21891;DHT22;11110;52.386;16.940;2023-02-15T05:28:03;15.00;39.20
21891;DHT22;11110;52.386;16.940;2023-02-15T05:31:02;15.00;39.60
21891;DHT22;11110;52.386;16.940;2023-02-15T05:33:33;15.00;39.70
21891;DHT22;11110;52.386;16.940;2023-02-15T05:36:03;15.10;39.60
21891;DHT22;11110;52.386;16.940;2023-02-15T05:38:33;15.10;39.30
21891;DHT22;11110;52.386;16.940;2023-02-15T05:41:01;15.10;39.10
21891;DHT22;11110;52.386;16.940;2023-02-15T05:43:30;15.10;39.20
21891;DHT22;11110;52.386;16.940;2023-02-15T05:45:59;15.10;39.20
21891;DHT22;11110;52.386;16.940;2023-02-15T05:48:28;15.10;39.00
21891;DHT22;11110;52.386;16.940;2023-02-15T05:51:01;15.10;39.20
21891;DHT22;11110;52.386;16.940;2023-02-15T05:53:32;15.10;39.50
21891;DHT22;11110;52.386;16.940;2023-02-15T05:56:01;15.10;39.50
21891;DHT22;11110;52.386;16.940;2023-02-15T05:58:32;15.10;39.60
21891;DHT22;11110;52.386;16.940;2023-02-15T06:01:07;15.20;39.40
21891;DHT22;11110;52.386;16.940;2023-02-15T06:03:37;15.20;39.30
21891;DHT22;11110;52.386;16.940;2023-02-15T06:06:08;15.10;39.00
21891;DHT22;11110;52.386;16.940;2023-02-15T06:08:38;15.10;38.90
21891;DHT22;11110;52.386;16.940;2023-02-15T06:11:07;15.10;38.90
21891;DHT22;11110;52.386;16.940;2023-02-15T06:13:36;15.10;39.20
21891;DHT22;11110;52.386;16.940;2023-02-15T06:16:05;15.10;39.20
21891;DHT22;11110;52.386;16.940;2023-02-15T06:18:35;15.10;38.90
21891;DHT22;11110;52.386;16.940;2023-02-15T06:21:03;15.10;38.90
21891;DHT22;11110;52.386;16.940;2023-02-15T06:23:33;15.10;38.80
21891;DHT22;11110;52.386;16.940;2023-02-15T06:26:02;15.00;39.40
21891;DHT22;11110;52.386;16.940;2023-02-15T06:28:31;15.10;39.90
21891;DHT22;11110;52.386;16.940;2023-02-15T06:31:00;15.00;39.40
21891;DHT22;11110;52.386;16.940;2023-02-15T06:33:28;15.10;39.40
21891;DHT22;11110;52.386;16.940;2023-02-15T06:36:01;15.10;39.30
21891;DHT22;11110;52.386;16.940;2023-02-15T06:38:32;15.10;39.30
21891;DHT22;11110;52.386;16.940;2023-02-15T06:41:01;15.00;39.50
21891;DHT22;11110;52.386;16.940;2023-02-15T06:43:29;15.00;39.80
21891;DHT22;11110;52.386;16.940;2023-02-15T06:45:58;15.00;39.80
21891;DHT22;11110;52.386;16.940;2023-02-15T06:48:28;15.00;39.90
21891;DHT22;11110;52.386;16.940;2023-02-15T06:50:56;15.00;40.00
21891;DHT22;11110;52.386;16.940;2023-02-15T06:53:25;15.00;40.20
21891;DHT22;11110;52.386;16.940;2023-02-15T06:56:01;15.10;40.40
21891;DHT22;11110;52.386;16.940;2023-02-15T06:58:33;15.10;40.20
21891;DHT22;11110;52.386;16.940;2023-02-15T07:01:02;15.10;40.40
21891;DHT22;11110;52.386;16.940;2023-02-15T07:03:31;15.10;40.50
21891;DHT22;11110;52.386;16.940;2023-02-15T07:06:01;15.10;40.70
21891;DHT22;11110;52.386;16.940;2023-02-15T07:08:33;15.30;41.40
21891;DHT22;11110;52.386;16.940;2023-02-15T07:11:04;15.20;41.30
21891;DHT22;11110;52.386;16.940;2023-02-15T07:13:50;15.20;41.20
21891;DHT22;11110;52.386;16.940;2023-02-15T07:16:20;15.20;41.40
21891;DHT22;11110;52.386;16.940;2023-02-15T07:18:48;15.20;41.60
21891;DHT22;11110;52.386;16.940;2023-02-15T07:21:17;15.30;42.00
21891;DHT22;11110;52.386;16.940;2023-02-15T07:23:46;15.30;42.00
21891;DHT22;11110;52.386;16.940;2023-02-15T07:26:16;15.40;42.10
21891;DHT22;11110;52.386;16.940;2023-02-15T07:28:45;15.40;42.20
21891;DHT22;11110;52.386;16.940;2023-02-15T07:31:14;15.50;42.50
21891;DHT22;11110;52.386;16.940;2023-02-15T07:33:42;15.50;42.40
21891;DHT22;11110;52.386;16.940;2023-02-15T07:36:11;15.40;42.30
21891;DHT22;11110;52.386;16.940;2023-02-15T07:38:41;15.50;42.50
21891;DHT22;11110;52.386;16.940;2023-02-15T07:41:12;15.50;42.70
21891;DHT22;11110;52.386;16.940;2023-02-15T07:43:43;15.60;42.70
21891;DHT22;11110;52.386;16.940;2023-02-15T07:46:15;15.70;42.80
21891;DHT22;11110;52.386;16.940;2023-02-15T07:48:44;15.70;42.80
21891;DHT22;11110;52.386;16.940;2023-02-15T07:51:14;15.70;42.70
21891;DHT22;11110;52.386;16.940;2023-02-15T07:53:43;15.80;42.70
21891;DHT22;11110;52.386;16.940;2023-02-15T07:56:13;15.80;42.70
21891;DHT22;11110;52.386;16.940;2023-02-15T07:58:43;15.80;42.50
21891;DHT22;11110;52.386;16.940;2023-02-15T08:01:24;16.00;42.90
21891;DHT22;11110;52.386;16.940;2023-02-15T08:03:53;16.10;42.90
21891;DHT22;11110;52.386;16.940;2023-02-15T08:06:24;16.10;42.90
21891;DHT22;11110;52.386;16.940;2023-02-15T08:08:53;16.10;42.90
21891;DHT22;11110;52.386;16.940;2023-02-15T08:11:23;16.20;42.90
21891;DHT22;11110;52.386;16.940;2023-02-15T08:14:03;16.20;42.90
21891;DHT22;11110;52.386;16.940;2023-02-15T08:16:34;16.20;43.00
21891;DHT22;11110;52.386;16.940;2023-02-15T08:19:04;16.20;43.10
21891;DHT22;11110;52.386;16.940;2023-02-15T08:21:34;16.30;43.30
21891;DHT22;11110;52.386;16.940;2023-02-15T08:24:04;16.20;43.20
21891;DHT22;11110;52.386;16.940;2023-02-15T08:26:34;16.30;43.60
21891;DHT22;11110;52.386;16.940;2023-02-15T08:29:04;16.30;43.60
21891;DHT22;11110;52.386;16.940;2023-02-15T08:31:34;16.30;43.50
21891;DHT22;11110;52.386;16.940;2023-02-15T08:34:04;16.40;43.60
21891;DHT22;11110;52.386;16.940;2023-02-15T08:36:33;16.40;43.30
21891;DHT22;11110;52.386;16.940;2023-02-15T08:39:04;16.60;43.40
21891;DHT22;11110;52.386;16.940;2023-02-15T08:41:35;16.50;43.30
21891;DHT22;11110;52.386;16.940;2023-02-15T08:44:06;16.40;43.40
21891;DHT22;11110;52.386;16.940;2023-02-15T08:46:37;16.50;43.60
21891;DHT22;11110;52.386;16.940;2023-02-15T08:49:06;16.70;43.60
21891;DHT22;11110;52.386;16.940;2023-02-15T08:51:37;16.80;43.40
21891;DHT22;11110;52.386;16.940;2023-02-15T08:54:08;16.80;43.20
21891;DHT22;11110;52.386;16.940;2023-02-15T08:56:39;16.80;43.10
21891;DHT22;11110;52.386;16.940;2023-02-15T08:59:14;16.70;43.20
21891;DHT22;11110;52.386;16.940;2023-02-15T09:01:44;16.80;43.30
21891;DHT22;11110;52.386;16.940;2023-02-15T09:04:13;16.70;43.50
21891;DHT22;11110;52.386;16.940;2023-02-15T09:06:44;16.80;43.40
21891;DHT22;11110;52.386;16.940;2023-02-15T09:09:15;16.80;43.40
21891;DHT22;11110;52.386;16.940;2023-02-15T09:11:46;16.80;43.40
21891;DHT22;11110;52.386;16.940;2023-02-15T09:14:18;17.00;43.50
21891;DHT22;11110;52.386;16.940;2023-02-15T09:16:49;17.00;43.30
21891;DHT22;11110;52.386;16.940;2023-02-15T09:19:21;17.00;43.40
21891;DHT22;11110;52.386;16.940;2023-02-15T09:21:50;17.20;43.50
21891;DHT22;11110;52.386;16.940;2023-02-15T09:24:18;17.10;43.30
21891;DHT22;11110;52.386;16.940;2023-02-15T09:26:48;17.30;43.20
21891;DHT22;11110;52.386;16.940;2023-02-15T09:29:19;17.30;42.90
21891;DHT22;11110;52.386;16.940;2023-02-15T09:31:49;17.30;43.00
21891;DHT22;11110;52.386;16.940;2023-02-15T09:34:19;17.20;43.10
21891;DHT22;11110;52.386;16.940;2023-02-15T09:36:49;17.10;43.10
21891;DHT22;11110;52.386;16.940;2023-02-15T09:39:19;17.20;43.20
21891;DHT22;11110;52.386;16.940;2023-02-15T09:45:19;17.40;43.30
21891;DHT22;11110;52.386;16.940;2023-02-15T09:50:59;17.40;42.90
21891;DHT22;11110;52.386;16.940;2023-02-15T09:53:54;17.50;43.00
21891;DHT22;11110;52.386;16.940;2023-02-15T09:56:28;17.60;42.90
21891;DHT22;11110;52.386;16.940;2023-02-15T09:59:06;17.70;42.80
21891;DHT22;11110;52.386;16.940;2023-02-15T10:01:45;17.70;42.80
21891;DHT22;11110;52.386;16.940;2023-02-15T10:04:32;17.60;42.80
21891;DHT22;11110;52.386;16.940;2023-02-15T10:07:11;17.60;42.80
21891;DHT22;11110;52.386;16.940;2023-02-15T10:09:52;17.60;43.00
21891;DHT22;11110;52.386;16.940;2023-02-15T10:12:40;17.70;43.10
21891;DHT22;11110;52.386;16.940;2023-02-15T10:15:22;17.80;42.90
21891;DHT22;11110;52.386;16.940;2023-02-15T10:18:15;17.80;43.00
21891;DHT22;11110;52.386;16.940;2023-02-15T10:20:53;17.80;42.80
21891;DHT22;11110;52.386;16.940;2023-02-15T10:26:20;18.00;42.70
21891;DHT22;11110;52.386;16.940;2023-02-15T10:28:51;18.10;42.50
21891;DHT22;11110;52.386;16.940;2023-02-15T10:31:24;18.00;42.40
21891;DHT22;11110;52.386;16.940;2023-02-15T10:34:10;17.90;42.40
21891;DHT22;11110;52.386;16.940;2023-02-15T10:36:58;18.00;42.40
21891;DHT22;11110;52.386;16.940;2023-02-15T10:39:39;18.00;42.50
21891;DHT22;11110;52.386;16.940;2023-02-15T10:42:18;18.00;42.30
21891;DHT22;11110;52.386;16.940;2023-02-15T10:45:02;18.10;42.30
21891;DHT22;11110;52.386;16.940;2023-02-15T10:47:41;18.10;42.20
21891;DHT22;11110;52.386;16.940;2023-02-15T10:50:30;18.20;42.20
21891;DHT22;11110;52.386;16.940;2023-02-15T10:53:23;18.20;42.00
21891;DHT22;11110;52.386;16.940;2023-02-15T10:55:59;18.40;41.90
21891;DHT22;11110;52.386;16.940;2023-02-15T10:58:43;18.40;41.50
21891;DHT22;11110;52.386;16.940;2023-02-15T11:01:19;18.50;41.60
21891;DHT22;11110;52.386;16.940;2023-02-15T11:04:09;18.60;41.50
21891;DHT22;11110;52.386;16.940;2023-02-15T11:06:48;18.70;41.20
21891;DHT22;11110;52.386;16.940;2023-02-15T11:09:20;18.80;41.20
21891;DHT22;11110;52.386;16.940;2023-02-15T11:11:52;18.90;41.00
21891;DHT22;11110;52.386;16.940;2023-02-15T11:14:33;19.00;40.80
21891;DHT22;11110;52.386;16.940;2023-02-15T11:17:08;19.00;40.70
21891;DHT22;11110;52.386;16.940;2023-02-15T11:19:44;19.20;40.60
21891;DHT22;11110;52.386;16.940;2023-02-15T11:22:18;19.30;40.60
21891;DHT22;11110;52.386;16.940;2023-02-15T11:24:47;19.30;40.50
21891;DHT22;11110;52.386;16.940;2023-02-15T11:27:19;19.30;40.40
21891;DHT22;11110;52.386;16.940;2023-02-15T11:29:54;19.30;40.30
21891;DHT22;11110;52.386;16.940;2023-02-15T11:32:28;19.30;40.30
21891;DHT22;11110;52.386;16.940;2023-02-15T11:35:02;19.50;40.40
21891;DHT22;11110;52.386;16.940;2023-02-15T11:37:37;19.60;40.00
21891;DHT22;11110;52.386;16.940;2023-02-15T11:40:17;19.70;40.00
21891;DHT22;11110;52.386;16.940;2023-02-15T11:42:48;19.70;39.90
21891;DHT22;11110;52.386;16.940;2023-02-15T11:45:22;19.70;39.80
21891;DHT22;11110;52.386;16.940;2023-02-15T11:47:54;19.80;39.50
21891;DHT22;11110;52.386;16.940;2023-02-15T11:50:25;19.90;39.50
21891;DHT22;11110;52.386;16.940;2023-02-15T11:52:58;19.90;39.60
21891;DHT22;11110;52.386;16.940;2023-02-15T11:55:28;20.00;39.40
21891;DHT22;11110;52.386;16.940;2023-02-15T11:58:01;20.20;39.30
21891;DHT22;11110;52.386;16.940;2023-02-15T12:00:35;20.30;39.20
21891;DHT22;11110;52.386;16.940;2023-02-15T12:03:13;20.40;38.80
21891;DHT22;11110;52.386;16.940;2023-02-15T12:05:45;20.60;38.80
21891;DHT22;11110;52.386;16.940;2023-02-15T12:08:19;20.60;38.80
21891;DHT22;11110;52.386;16.940;2023-02-15T12:10:57;20.70;38.60
21891;DHT22;11110;52.386;16.940;2023-02-15T12:13:27;20.90;38.40
21891;DHT22;11110;52.386;16.940;2023-02-15T12:15:59;20.90;38.70
21891;DHT22;11110;52.386;16.940;2023-02-15T12:18:36;21.00;37.90
21891;DHT22;11110;52.386;16.940;2023-02-15T12:21:09;21.00;38.00
21891;DHT22;11110;52.386;16.940;2023-02-15T12:23:46;21.00;37.80
21891;DHT22;11110;52.386;16.940;2023-02-15T12:26:23;21.10;37.90
21891;DHT22;11110;52.386;16.940;2023-02-15T12:28:54;21.20;38.00
21891;DHT22;11110;52.386;16.940;2023-02-15T12:31:31;21.20;37.90
21891;DHT22;11110;52.386;16.940;2023-02-15T12:34:07;21.20;37.40
21891;DHT22;11110;52.386;16.940;2023-02-15T12:36:42;21.50;37.50
21891;DHT22;11110;52.386;16.940;2023-02-15T12:39:20;21.50;37.10
21891;DHT22;11110;52.386;16.940;2023-02-15T12:42:04;21.60;37.00
21891;DHT22;11110;52.386;16.940;2023-02-15T12:44:35;21.70;36.80
21891;DHT22;11110;52.386;16.940;2023-02-15T12:47:06;21.80;37.50
21891;DHT22;11110;52.386;16.940;2023-02-15T12:50:05;21.90;36.60
21891;DHT22;11110;52.386;16.940;2023-02-15T12:52:39;22.00;36.50
21891;DHT22;11110;52.386;16.940;2023-02-15T12:55:20;22.00;36.20
21891;DHT22;11110;52.386;16.940;2023-02-15T12:57:58;22.20;36.10
21891;DHT22;11110;52.386;16.940;2023-02-15T13:00:32;22.20;36.30
21891;DHT22;11110;52.386;16.940;2023-02-15T13:03:02;22.20;36.20
21891;DHT22;11110;52.386;16.940;2023-02-15T13:05:35;22.40;36.30
21891;DHT22;11110;52.386;16.940;2023-02-15T13:08:10;22.50;36.20
21891;DHT22;11110;52.386;16.940;2023-02-15T13:10:51;22.50;35.70
21891;DHT22;11110;52.386;16.940;2023-02-15T13:13:23;22.60;35.90
21891;DHT22;11110;52.386;16.940;2023-02-15T13:15:55;22.70;35.70
21891;DHT22;11110;52.386;16.940;2023-02-15T13:18:31;22.80;35.30
21891;DHT22;11110;52.386;16.940;2023-02-15T13:21:06;22.90;35.20
21891;DHT22;11110;52.386;16.940;2023-02-15T13:23:40;23.00;35.30
21891;DHT22;11110;52.386;16.940;2023-02-15T13:26:16;22.90;35.30
21891;DHT22;11110;52.386;16.940;2023-02-15T13:28:49;23.00;35.20
21891;DHT22;11110;52.386;16.940;2023-02-15T13:31:22;23.00;35.10
21891;DHT22;11110;52.386;16.940;2023-02-15T13:33:56;23.00;34.80
21891;DHT22;11110;52.386;16.940;2023-02-15T13:36:29;23.10;34.50
21891;DHT22;11110;52.386;16.940;2023-02-15T13:39:10;23.10;34.50
21891;DHT22;11110;52.386;16.940;2023-02-15T13:41:49;23.20;34.80
21891;DHT22;11110;52.386;16.940;2023-02-15T13:44:27;23.30;34.70
21891;DHT22;11110;52.386;16.940;2023-02-15T13:47:08;23.40;34.70
21891;DHT22;11110;52.386;16.940;2023-02-15T13:49:53;23.50;34.40
21891;DHT22;11110;52.386;16.940;2023-02-15T13:52:28;23.40;34.40
21891;DHT22;11110;52.386;16.940;2023-02-15T13:55:11;23.50;34.10
21891;DHT22;11110;52.386;16.940;2023-02-15T13:58:05;23.60;34.10
21891;DHT22;11110;52.386;16.940;2023-02-15T14:00:46;23.60;34.20
21891;DHT22;11110;52.386;16.940;2023-02-15T14:03:39;23.60;34.10
21891;DHT22;11110;52.386;16.940;2023-02-15T14:06:18;23.70;34.00
21891;DHT22;11110;52.386;16.940;2023-02-15T14:09:03;23.70;34.40
21891;DHT22;11110;52.386;16.940;2023-02-15T14:11:41;23.80;33.80
21891;DHT22;11110;52.386;16.940;2023-02-15T14:14:34;23.80;33.90
21891;DHT22;11110;52.386;16.940;2023-02-15T14:17:14;23.90;33.70
21891;DHT22;11110;52.386;16.940;2023-02-15T14:19:46;23.80;33.80
21891;DHT22;11110;52.386;16.940;2023-02-15T14:22:23;23.70;33.80
21891;DHT22;11110;52.386;16.940;2023-02-15T14:25:03;23.70;33.80
21891;DHT22;11110;52.386;16.940;2023-02-15T14:27:48;23.70;33.80
21891;DHT22;11110;52.386;16.940;2023-02-15T14:30:23;23.80;33.80
21891;DHT22;11110;52.386;16.940;2023-02-15T14:32:55;23.70;33.90
21891;DHT22;11110;52.386;16.940;2023-02-15T14:35:28;23.70;33.90
21891;DHT22;11110;52.386;16.940;2023-02-15T14:38:04;23.70;33.90
21891;DHT22;11110;52.386;16.940;2023-02-15T14:40:40;23.70;34.10
21891;DHT22;11110;52.386;16.940;2023-02-15T14:43:42;23.70;34.20
21891;DHT22;11110;52.386;16.940;2023-02-15T14:46:23;23.70;34.10
21891;DHT22;11110;52.386;16.940;2023-02-15T14:48:56;23.70;34.00
21891;DHT22;11110;52.386;16.940;2023-02-15T14:51:53;23.70;33.80
21891;DHT22;11110;52.386;16.940;2023-02-15T14:54:55;23.80;33.90
21891;DHT22;11110;52.386;16.940;2023-02-15T14:57:30;23.70;33.80
21891;DHT22;11110;52.386;16.940;2023-02-15T15:00:39;23.60;33.90
21891;DHT22;11110;52.386;16.940;2023-02-15T15:03:20;23.50;33.80
21891;DHT22;11110;52.386;16.940;2023-02-15T15:05:52;23.60;33.80
21891;DHT22;11110;52.386;16.940;2023-02-15T15:08:26;23.40;34.00
21891;DHT22;11110;52.386;16.940;2023-02-15T15:14:39;23.40;34.00
21891;DHT22;11110;52.386;16.940;2023-02-15T15:17:11;23.20;34.10
21891;DHT22;11110;52.386;16.940;2023-02-15T15:20:05;23.30;34.00
21891;DHT22;11110;52.386;16.940;2023-02-15T15:22:41;23.20;34.10
21891;DHT22;11110;52.386;16.940;2023-02-15T15:25:41;23.20;34.10
21891;DHT22;11110;52.386;16.940;2023-02-15T15:28:55;23.20;34.10
21891;DHT22;11110;52.386;16.940;2023-02-15T15:34:32;23.20;33.90
21891;DHT22;11110;52.386;16.940;2023-02-15T15:37:40;23.10;33.90
21891;DHT22;11110;52.386;16.940;2023-02-15T15:47:12;22.90;34.00
21891;DHT22;11110;52.386;16.940;2023-02-15T15:49:47;22.90;34.00
21891;DHT22;11110;52.386;16.940;2023-02-15T15:52:17;22.80;33.90
21891;DHT22;11110;52.386;16.940;2023-02-15T15:54:49;22.80;34.00
21891;DHT22;11110;52.386;16.940;2023-02-15T15:57:26;22.70;34.00
21891;DHT22;11110;52.386;16.940;2023-02-15T15:59:56;22.60;34.10
21891;DHT22;11110;52.386;16.940;2023-02-15T16:02:28;22.60;34.20
21891;DHT22;11110;52.386;16.940;2023-02-15T16:05:06;22.50;34.30
21891;DHT22;11110;52.386;16.940;2023-02-15T16:07:36;22.30;34.40
21891;DHT22;11110;52.386;16.940;2023-02-15T16:10:16;22.20;34.50
21891;DHT22;11110;52.386;16.940;2023-02-15T16:12:49;22.20;34.60
21891;DHT22;11110;52.386;16.940;2023-02-15T16:15:19;22.20;34.60
21891;DHT22;11110;52.386;16.940;2023-02-15T16:17:54;22.10;34.70
21891;DHT22;11110;52.386;16.940;2023-02-15T16:20:26;22.00;34.80
21891;DHT22;11110;52.386;16.940;2023-02-15T16:23:04;21.90;34.90
21891;DHT22;11110;52.386;16.940;2023-02-15T16:25:42;21.90;35.20
21891;DHT22;11110;52.386;16.940;2023-02-15T16:28:14;21.80;35.20
21891;DHT22;11110;52.386;16.940;2023-02-15T16:30:45;21.80;35.30